createdAt,value
2022-08-25T00:01:14.280Z,26.30
2022-08-25T00:06:18.816Z,26.10
2022-08-25T00:11:23.859Z,26.20
2022-08-25T00:16:27.265Z,26.30
2022-08-25T00:21:32.555Z,26.10
2022-08-25T00:26:36.053Z,25.80
2022-08-25T00:31:40.277Z,25.80
2022-08-25T00:36:45.467Z,25.90
2022-08-25T00:41:49.728Z,25.80
2022-08-25T00:46:54.512Z,26.00
2022-08-25T00:52:02.363Z,25.90
2022-08-25T00:57:07.065Z,25.90
2022-08-25T01:02:11.388Z,25.80
2022-08-25T01:07:20.500Z,25.90
2022-08-25T01:12:23.638Z,25.70
2022-08-25T01:17:28.170Z,25.60
2022-08-25T01:22:32.721Z,25.50
2022-08-25T01:27:35.640Z,25.50
2022-08-25T01:32:38.565Z,25.50
2022-08-25T01:37:43.012Z,25.40
2022-08-25T01:42:58.652Z,25.40
2022-08-25T01:48:01.986Z,25.40
2022-08-25T01:53:10.114Z,25.20
2022-08-25T01:58:12.993Z,25.30
2022-08-25T02:03:19.121Z,25.20
2022-08-25T02:08:25.190Z,25.10
2022-08-25T02:13:31.546Z,25.30
2022-08-25T02:18:35.659Z,25.20
2022-08-25T02:23:40.112Z,25.10
2022-08-25T02:28:43.328Z,25.00
2022-08-25T02:33:46.793Z,24.80
2022-08-25T02:38:51.508Z,24.30
2022-08-25T02:43:55.258Z,24.40
2022-08-25T02:48:58.527Z,23.70
2022-08-25T02:54:05.982Z,24.00
2022-08-25T02:59:09.180Z,24.00
2022-08-25T03:04:12.462Z,23.40
2022-08-25T03:09:18.064Z,23.70
2022-08-25T03:14:31.250Z,23.80
2022-08-25T03:19:34.408Z,23.60
2022-08-25T03:24:38.814Z,23.70
2022-08-25T03:29:43.168Z,23.70
2022-08-25T03:34:46.607Z,23.50
2022-08-25T03:39:51.029Z,23.50
2022-08-25T03:44:54.638Z,23.50
2022-08-25T03:49:57.635Z,23.50
2022-08-25T03:55:02.448Z,23.50
2022-08-25T04:00:07.183Z,23.20
2022-08-25T04:05:15.857Z,22.70
2022-08-25T04:10:20.506Z,22.40
2022-08-25T04:15:24.092Z,22.40
2022-08-25T04:20:32.998Z,22.60
2022-08-25T04:25:42.329Z,22.30
2022-08-25T04:30:51.837Z,22.60
2022-08-25T04:35:55.265Z,22.80
2022-08-25T04:41:00.989Z,22.70
2022-08-25T04:46:20.179Z,22.60
2022-08-25T04:51:30.960Z,22.60
2022-08-25T04:56:36.337Z,22.80
2022-08-25T05:01:40.496Z,22.80
2022-08-25T05:06:44.655Z,22.40
2022-08-25T05:11:49.452Z,22.40
2022-08-25T05:16:52.581Z,22.40
2022-08-25T05:21:58.084Z,22.50
2022-08-25T05:27:03.927Z,22.40
2022-08-25T05:32:13.976Z,22.10
2022-08-25T05:37:17.105Z,22.10
2022-08-25T05:42:22.521Z,21.90
2022-08-25T05:47:25.764Z,22.10
2022-08-25T05:52:29.332Z,22.20
2022-08-25T05:57:33.978Z,22.60
2022-08-25T06:02:46.323Z,22.80
2022-08-25T06:07:52.107Z,22.80
2022-08-25T06:12:56.905Z,22.80
2022-08-25T06:18:03.437Z,22.90
2022-08-25T06:23:06.653Z,23.00
2022-08-25T06:28:11.168Z,23.00
2022-08-25T06:33:15.324Z,23.10
2022-08-25T06:38:18.687Z,23.40
2022-08-25T06:43:24.327Z,23.30
2022-08-25T06:48:27.628Z,23.40
2022-08-25T06:53:34.632Z,23.50
2022-08-25T06:58:39.889Z,23.70
2022-08-25T07:03:43.742Z,23.80
2022-08-25T07:08:53.088Z,23.90
2022-08-25T07:13:57.604Z,24.20
2022-08-25T07:19:03.426Z,24.40
2022-08-25T07:24:08.563Z,24.50
2022-08-25T07:29:18.053Z,24.60
2022-08-25T07:34:53.779Z,24.60
2022-08-25T07:40:00.134Z,24.80
2022-08-25T07:45:06.233Z,24.90
2022-08-25T07:50:13.234Z,25.20
2022-08-25T07:55:18.056Z,25.20
2022-08-25T08:00:22.798Z,25.20
2022-08-25T08:05:28.889Z,25.50
2022-08-25T08:10:53.863Z,25.70
2022-08-25T08:16:05.404Z,26.00
2022-08-25T08:21:13.041Z,25.80
2022-08-25T08:26:36.257Z,25.90
2022-08-25T08:31:41.449Z,25.90
2022-08-25T08:36:56.815Z,26.20
2022-08-25T08:42:23.198Z,26.20
2022-08-25T08:47:38.593Z,26.30
2022-08-25T08:52:48.784Z,26.90
2022-08-25T08:57:56.624Z,26.90
2022-08-25T09:03:07.702Z,26.70
2022-08-25T09:08:20.411Z,26.90
2022-08-25T09:13:35.450Z,27.40
2022-08-25T09:18:55.909Z,27.50
2022-08-25T09:24:15.737Z,27.60
2022-08-25T09:29:25.339Z,27.30
2022-08-25T09:34:35.054Z,27.40
2022-08-25T09:39:39.069Z,27.60
2022-08-25T09:44:48.533Z,27.90
2022-08-25T09:50:01.605Z,27.90
2022-08-25T09:55:34.506Z,27.90
2022-08-25T10:00:46.130Z,28.50
2022-08-25T10:06:02.487Z,28.50
2022-08-25T10:11:12.191Z,28.50
2022-08-25T10:16:28.648Z,28.70
2022-08-25T10:21:36.093Z,28.60
2022-08-25T10:26:49.947Z,28.60
2022-08-25T10:32:05.158Z,28.70
2022-08-25T10:37:19.183Z,28.90
2022-08-25T10:42:35.011Z,29.00
2022-08-25T10:48:01.863Z,29.10
2022-08-25T10:53:20.290Z,29.70
2022-08-25T10:58:31.943Z,29.90
2022-08-25T11:03:48.442Z,29.70
2022-08-25T11:08:56.053Z,29.90
2022-08-25T11:14:06.324Z,29.90
2022-08-25T11:19:20.162Z,29.90
2022-08-25T11:24:45.882Z,29.70
2022-08-25T11:30:00.307Z,29.80
2022-08-25T11:35:06.822Z,30.20
2022-08-25T11:40:22.810Z,30.10
2022-08-25T11:45:55.646Z,30.40
2022-08-25T11:51:07.754Z,30.20
2022-08-25T11:56:33.107Z,30.50
2022-08-25T12:02:15.577Z,30.30
2022-08-25T12:07:31.425Z,30.40
2022-08-25T12:12:44.753Z,30.60
2022-08-25T12:18:15.158Z,30.60
2022-08-25T12:23:21.402Z,30.80
2022-08-25T12:28:46.196Z,30.90
2022-08-25T12:34:08.408Z,30.90
2022-08-25T12:39:24.350Z,31.20
2022-08-25T12:45:06.861Z,31.60
2022-08-25T12:50:39.174Z,31.60
2022-08-25T12:55:48.461Z,31.60
2022-08-25T13:01:32.977Z,31.60
2022-08-25T13:07:08.113Z,31.60
2022-08-25T13:12:21.152Z,31.40
2022-08-25T13:17:29.393Z,31.30
2022-08-25T13:22:37.531Z,31.30
2022-08-25T13:27:41.653Z,31.50
2022-08-25T13:32:47.230Z,31.60
2022-08-25T13:37:54.741Z,31.90
2022-08-25T13:43:09.189Z,31.90
2022-08-25T13:55:04.703Z,31.70
2022-08-25T14:01:48.530Z,31.80
2022-08-25T14:14:05.158Z,32.10
2022-08-25T14:19:19.907Z,32.20
2022-08-25T14:24:24.664Z,32.30
2022-08-25T14:29:29.534Z,32.30
2022-08-25T14:34:37.625Z,32.10
2022-08-25T14:39:42.523Z,32.20
2022-08-25T14:44:48.655Z,32.10
2022-08-25T14:49:56.139Z,32.20
2022-08-25T14:55:00.433Z,32.40
2022-08-25T15:00:07.065Z,32.30
2022-08-25T15:05:16.545Z,32.40
2022-08-25T15:10:21.664Z,32.50
2022-08-25T15:15:28.669Z,32.50
2022-08-25T15:20:32.082Z,32.60
2022-08-25T15:25:35.380Z,32.50
2022-08-25T15:30:42.091Z,32.50
2022-08-25T15:35:47.510Z,32.60
2022-08-25T15:40:53.002Z,32.50
2022-08-25T15:45:57.598Z,32.70
2022-08-25T15:51:00.960Z,32.60
2022-08-25T15:56:06.316Z,32.70
2022-08-25T16:01:15.260Z,32.60
2022-08-25T16:06:19.999Z,32.80
2022-08-25T16:11:25.434Z,32.70
2022-08-25T16:16:30.958Z,32.80
2022-08-25T16:21:42.030Z,32.80
2022-08-25T16:26:51.720Z,33.00
2022-08-25T16:31:58.278Z,32.90
2022-08-25T16:37:05.988Z,32.60
2022-08-25T16:42:09.496Z,32.70
2022-08-25T16:47:17.812Z,32.50
2022-08-25T16:52:40.938Z,32.60
2022-08-25T16:57:49.757Z,32.60
2022-08-25T17:02:59.137Z,32.40
2022-08-25T17:08:20.563Z,32.50
2022-08-25T17:13:23.511Z,32.50
2022-08-25T17:18:29.387Z,32.70
2022-08-25T17:23:33.280Z,32.80
2022-08-25T17:28:37.057Z,32.60
2022-08-25T17:33:45.203Z,32.70
2022-08-25T17:38:48.480Z,32.80
2022-08-25T17:43:52.033Z,33.00
2022-08-25T17:48:56.338Z,32.90
2022-08-25T17:53:59.493Z,33.00
2022-08-25T17:59:03.335Z,33.10
2022-08-25T18:04:16.965Z,33.00
2022-08-25T18:09:20.744Z,33.00
2022-08-25T18:14:25.620Z,32.50
2022-08-25T18:19:30.454Z,32.50
2022-08-25T18:24:35.358Z,32.40
2022-08-25T18:29:38.398Z,32.30
2022-08-25T18:34:44.926Z,32.10
2022-08-25T18:40:06.649Z,31.90
2022-08-25T18:45:12.386Z,31.70
2022-08-25T18:50:17.030Z,31.70
2022-08-25T18:55:23.854Z,31.60
2022-08-25T19:00:29.725Z,31.30
2022-08-25T19:05:38.300Z,31.10
2022-08-25T19:10:42.812Z,30.90
2022-08-25T19:15:46.902Z,30.60
2022-08-25T19:20:51.355Z,30.60
2022-08-25T19:25:55.513Z,30.30
2022-08-25T19:30:59.241Z,30.30
2022-08-25T19:36:04.725Z,29.60
2022-08-25T19:41:14.684Z,29.90
2022-08-25T19:46:19.543Z,30.00
2022-08-25T19:51:25.378Z,29.90
2022-08-25T19:56:29.612Z,29.90
2022-08-25T20:01:34.029Z,29.50
2022-08-25T20:06:39.124Z,29.50
2022-08-25T20:11:42.164Z,29.60
2022-08-25T20:16:45.251Z,29.10
2022-08-25T20:21:49.550Z,28.60
2022-08-25T20:26:52.622Z,28.60
2022-08-25T20:31:55.548Z,28.80
2022-08-25T20:37:00.836Z,28.80
2022-08-25T20:42:04.635Z,28.60
2022-08-25T20:47:10.269Z,28.40
2022-08-25T20:52:18.381Z,28.30
2022-08-25T20:57:25.782Z,28.30
2022-08-25T21:02:30.543Z,28.40
2022-08-25T21:07:35.852Z,28.50
2022-08-25T21:12:39.190Z,28.30
2022-08-25T21:17:43.347Z,28.10
2022-08-25T21:22:48.345Z,27.70
2022-08-25T21:27:54.404Z,26.70
2022-08-25T21:32:57.371Z,27.20
2022-08-25T21:38:01.631Z,27.50
2022-08-25T21:43:07.089Z,27.60
2022-08-25T21:48:11.469Z,27.70
2022-08-25T21:53:15.739Z,26.80
2022-08-25T21:58:19.954Z,26.90
2022-08-25T22:03:22.911Z,26.80
2022-08-25T22:08:30.741Z,27.10
2022-08-25T22:13:35.690Z,27.10
2022-08-25T22:18:39.070Z,26.60
2022-08-25T22:23:46.923Z,26.60
2022-08-25T22:28:49.979Z,26.70
2022-08-25T22:33:53.639Z,26.80
2022-08-25T22:38:58.661Z,26.10
2022-08-25T22:44:04.929Z,26.50
2022-08-25T22:49:08.414Z,26.30
2022-08-25T22:54:14.902Z,26.40
2022-08-25T22:59:18.169Z,26.20
2022-08-25T23:04:21.687Z,26.30
2022-08-25T23:09:27.022Z,26.30
2022-08-25T23:14:35.587Z,25.80
2022-08-25T23:19:38.609Z,25.80
2022-08-25T23:24:45.459Z,26.00
2022-08-25T23:29:50.705Z,25.70
2022-08-25T23:34:53.625Z,25.80
2022-08-25T23:39:58.618Z,25.90
2022-08-25T23:45:01.928Z,25.70
2022-08-25T23:50:05.719Z,25.60
2022-08-25T23:55:10.427Z,25.60
